createdAt,value
2023-04-19T00:09:03.195Z,12.03
2023-04-19T00:19:05.386Z,11.67
2023-04-19T00:29:07.730Z,11.60
2023-04-19T00:39:09.865Z,11.32
2023-04-19T00:49:13.817Z,10.03
2023-04-19T00:59:16.258Z,11.38
2023-04-19T01:09:18.369Z,11.50
2023-04-19T01:19:21.532Z,9.77
2023-04-19T01:29:23.993Z,9.37
2023-04-19T01:39:27.577Z,8.17
2023-04-19T01:49:30.581Z,6.80
2023-04-19T01:59:33.492Z,7.03
2023-04-19T02:09:37.470Z,6.37
2023-04-19T02:19:39.724Z,5.37
2023-04-19T02:29:41.954Z,4.60
2023-04-19T02:39:45.771Z,3.70
2023-04-19T02:49:48.154Z,4.63
2023-04-19T02:59:50.720Z,4.10
2023-04-19T03:09:53.141Z,3.67
2023-04-19T03:19:56.586Z,3.83
2023-04-19T03:29:59.431Z,3.80
2023-04-19T03:40:03.787Z,3.30
2023-04-19T03:50:09.601Z,3.13
2023-04-19T04:00:14.379Z,3.30
2023-04-19T04:10:16.440Z,3.40
2023-04-19T04:20:19.577Z,3.77
2023-04-19T04:30:22.373Z,3.00
2023-04-19T04:40:25.654Z,3.77
2023-04-19T04:50:28.764Z,4.00
2023-04-19T05:00:32.250Z,4.53
2023-04-19T05:10:39.886Z,4.10
2023-04-19T05:20:42.142Z,5.17
2023-04-19T05:30:52.364Z,4.70
2023-04-19T05:40:57.651Z,4.30
2023-04-19T05:50:59.989Z,4.00
2023-04-19T06:01:38.406Z,3.47
2023-04-19T06:11:49.980Z,3.40
2023-04-19T06:21:53.298Z,3.17
2023-04-19T06:31:55.507Z,2.43
2023-04-19T06:41:57.818Z,2.93
2023-04-19T06:52:00.111Z,2.50
2023-04-19T07:02:02.290Z,2.60
2023-04-19T07:12:04.497Z,2.40
2023-04-19T07:22:06.541Z,2.40
2023-04-19T07:32:08.786Z,2.10
2023-04-19T07:42:10.922Z,1.50
2023-04-19T07:52:13.073Z,2.10
2023-04-19T08:02:16.506Z,2.05
2023-04-19T08:12:32.979Z,1.53
2023-04-19T08:22:39.752Z,1.80
2023-04-19T08:32:41.874Z,1.30
2023-04-19T08:42:44.184Z,1.27
2023-04-19T08:52:54.969Z,1.13
2023-04-19T09:02:59.684Z,1.23
2023-04-19T09:13:04.155Z,0.90
2023-04-19T09:23:08.657Z,1.30
2023-04-19T09:33:10.870Z,1.00
2023-04-19T09:43:36.852Z,1.37
2023-04-19T09:53:36.647Z,1.50
2023-04-19T10:03:38.931Z,1.40
2023-04-19T10:13:41.558Z,1.40
2023-04-19T10:23:43.717Z,1.67
2023-04-19T10:33:46.315Z,0.93
2023-04-19T10:44:00.458Z,1.30
2023-04-19T10:54:03.417Z,1.37
2023-04-19T11:04:06.932Z,1.20
2023-04-19T11:14:10.322Z,1.50
2023-04-19T11:24:13.270Z,1.47
2023-04-19T11:34:15.962Z,1.55
2023-04-19T11:44:22.161Z,1.88
2023-04-19T11:54:25.403Z,1.90
2023-04-19T12:04:28.398Z,2.40
2023-04-19T12:14:31.429Z,2.45
2023-04-19T12:24:33.495Z,2.20
2023-04-19T12:34:35.528Z,2.40
2023-04-19T12:44:37.583Z,2.28
2023-04-19T12:54:39.654Z,2.25
2023-04-19T13:04:41.905Z,2.08
2023-04-19T13:14:46.220Z,1.60
2023-04-19T13:24:48.309Z,2.08
2023-04-19T13:34:50.419Z,1.83
2023-04-19T13:44:52.453Z,1.70
2023-04-19T13:54:54.507Z,1.80
2023-04-19T14:04:58.958Z,1.50
2023-04-19T14:15:01.334Z,1.42
2023-04-19T14:25:04.036Z,1.48
2023-04-19T14:35:08.219Z,1.90
2023-04-19T14:45:10.680Z,1.25
2023-04-19T14:55:12.957Z,1.00
2023-04-19T15:05:15.856Z,1.77
2023-04-19T15:15:18.268Z,1.20
2023-04-19T15:25:20.456Z,1.00
2023-04-19T15:35:22.629Z,0.88
2023-04-19T15:45:24.816Z,1.02
2023-04-19T15:55:26.916Z,1.40
2023-04-19T16:05:29.135Z,0.90
2023-04-19T16:15:31.617Z,0.88
2023-04-19T16:25:34.225Z,1.38
2023-04-19T16:35:36.571Z,1.02
2023-04-19T16:45:38.673Z,1.33
2023-04-19T16:55:40.873Z,1.02
2023-04-19T17:05:42.936Z,1.43
2023-04-19T17:15:45.085Z,1.60
2023-04-19T17:25:47.202Z,1.65
2023-04-19T17:35:49.279Z,1.60
2023-04-19T17:45:51.793Z,1.63
2023-04-19T17:55:53.968Z,2.20
2023-04-19T18:05:56.225Z,2.15
2023-04-19T18:15:59.634Z,1.60
2023-04-19T18:26:02.662Z,2.00
2023-04-19T18:36:05.459Z,2.20
2023-04-19T18:46:07.596Z,2.17
2023-04-19T18:56:09.988Z,1.80
2023-04-19T19:06:13.108Z,2.28
2023-04-19T19:16:18.372Z,2.00
2023-04-19T19:26:22.533Z,2.10
2023-04-19T19:36:24.574Z,2.13
2023-04-19T19:46:30.722Z,2.40
2023-04-19T19:56:34.843Z,1.80
2023-04-19T20:07:25.164Z,2.20
2023-04-19T20:17:01.052Z,2.03
2023-04-19T20:27:03.211Z,2.37
2023-04-19T20:37:06.844Z,1.48
2023-04-19T20:47:08.937Z,1.83
2023-04-19T20:57:11.085Z,2.22
2023-04-19T21:07:13.827Z,1.90
2023-04-19T21:17:15.915Z,2.33
2023-04-19T21:27:17.965Z,2.13
2023-04-19T21:37:20.836Z,2.13
2023-04-19T21:47:22.987Z,1.97
2023-04-19T21:57:26.865Z,1.80
2023-04-19T22:07:31.871Z,3.67
2023-04-19T22:17:34.070Z,1.53
2023-04-19T22:27:36.324Z,1.90
2023-04-19T22:37:38.377Z,1.60
2023-04-19T22:47:40.516Z,1.50
2023-04-19T22:57:43.085Z,2.27
2023-04-19T23:07:45.223Z,2.20
2023-04-19T23:17:47.786Z,1.73
2023-04-19T23:27:50.367Z,1.70
2023-04-19T23:37:52.401Z,1.80
2023-04-19T23:47:54.504Z,2.00
2023-04-19T23:57:56.582Z,2.00
